createdAt,value
2022-11-06T00:00:32.501Z,98556.66
2022-11-06T00:03:00.878Z,98563.75
2022-11-06T00:05:47.339Z,98565.81
2022-11-06T00:08:16.273Z,98564.34
2022-11-06T00:10:44.469Z,98575.75
2022-11-06T00:13:13.957Z,98569.72
2022-11-06T00:15:41.987Z,98567.09
2022-11-06T00:18:10.181Z,98575.78
2022-11-06T00:20:38.766Z,98569.88
2022-11-06T00:23:06.900Z,98569.78
2022-11-06T00:25:35.018Z,98579.38
2022-11-06T00:28:03.079Z,98583.47
2022-11-06T00:30:32.593Z,98583.78
2022-11-06T00:33:00.682Z,98589.59
2022-11-06T00:35:28.685Z,98591.88
2022-11-06T00:37:57.321Z,98575.50
2022-11-06T00:40:25.307Z,98575.03
2022-11-06T00:42:57.791Z,98573.66
2022-11-06T00:45:25.987Z,98579.22
2022-11-06T00:47:55.329Z,98574.94
2022-11-06T00:50:26.538Z,98581.94
2022-11-06T00:52:55.783Z,98587.06
2022-11-06T00:55:23.844Z,98576.78
2022-11-06T00:57:52.316Z,98581.22
2022-11-06T01:00:20.587Z,98583.06
2022-11-06T01:02:48.739Z,98581.88
2022-11-06T01:05:18.515Z,98583.72
2022-11-06T01:07:46.598Z,98578.34
2022-11-06T01:10:15.260Z,98585.84
2022-11-06T01:12:43.277Z,98591.97
2022-11-06T01:15:11.926Z,98590.53
2022-11-06T01:17:39.927Z,98587.28
2022-11-06T01:20:09.052Z,98582.38
2022-11-06T01:22:38.547Z,98589.97
2022-11-06T01:25:07.892Z,98595.19
2022-11-06T01:27:35.910Z,98593.22
2022-11-06T01:30:04.318Z,98579.03
2022-11-06T01:32:32.320Z,98583.06
2022-11-06T01:35:00.462Z,98577.63
2022-11-06T01:37:28.460Z,98583.00
2022-11-06T01:39:57.883Z,98582.38
2022-11-06T01:42:25.895Z,98594.91
2022-11-06T01:45:35.310Z,98584.00
2022-11-06T01:48:04.393Z,98584.34
2022-11-06T01:50:32.613Z,98587.94
2022-11-06T01:53:02.559Z,98594.91
2022-11-06T01:55:36.005Z,98597.31
2022-11-06T01:58:06.604Z,98593.94
2022-11-06T02:00:35.493Z,98597.88
2022-11-06T02:03:04.315Z,98595.75
2022-11-06T02:05:32.619Z,98597.44
2022-11-06T02:08:02.087Z,98593.78
2022-11-06T02:10:31.777Z,98587.66
2022-11-06T02:13:16.917Z,98590.59
2022-11-06T02:15:51.235Z,98590.59
2022-11-06T02:18:42.008Z,98590.38
2022-11-06T02:21:36.652Z,98584.53
2022-11-06T02:24:31.015Z,98589.16
2022-11-06T02:27:10.367Z,98587.44
2022-11-06T02:29:46.936Z,98591.50
2022-11-06T02:32:20.045Z,98606.94
2022-11-06T02:34:50.457Z,98610.75
2022-11-06T02:37:25.163Z,98622.88
2022-11-06T02:39:55.926Z,98614.06
2022-11-06T02:42:29.529Z,98615.75
2022-11-06T02:44:59.565Z,98618.59
2022-11-06T02:47:31.437Z,98622.09
2022-11-06T02:50:05.886Z,98620.13
2022-11-06T02:52:38.637Z,98621.94
2022-11-06T02:55:12.422Z,98615.81
2022-11-06T02:57:47.021Z,98627.28
2022-11-06T03:00:17.755Z,98620.91
2022-11-06T03:02:51.365Z,98612.84
2022-11-06T03:05:25.401Z,98612.25
2022-11-06T03:07:58.253Z,98613.13
2022-11-06T03:10:31.078Z,98617.31
2022-11-06T03:13:07.215Z,98612.59
2022-11-06T03:15:41.202Z,98608.63
2022-11-06T03:18:16.737Z,98610.47
2022-11-06T03:20:55.592Z,98609.47
2022-11-06T03:23:29.489Z,98608.16
2022-11-06T03:26:04.336Z,98610.78
2022-11-06T03:28:37.738Z,98604.09
2022-11-06T03:31:12.207Z,98604.25
2022-11-06T03:33:44.193Z,98605.44
2022-11-06T03:36:18.349Z,98607.50
2022-11-06T03:38:49.935Z,98604.72
2022-11-06T03:41:23.733Z,98608.13
2022-11-06T03:43:56.723Z,98618.03
2022-11-06T03:46:27.863Z,98623.50
2022-11-06T03:48:59.802Z,98633.91
2022-11-06T03:51:33.440Z,98633.13
2022-11-06T03:54:06.064Z,98634.81
2022-11-06T03:56:41.761Z,98639.22
2022-11-06T03:59:15.202Z,98637.13
2022-11-06T04:01:47.851Z,98635.25
2022-11-06T04:04:23.047Z,98635.69
2022-11-06T04:06:54.705Z,98637.88
2022-11-06T04:09:44.892Z,98643.63
2022-11-06T04:12:33.856Z,98647.00
2022-11-06T04:15:03.897Z,98646.13
2022-11-06T04:17:32.638Z,98653.47
2022-11-06T04:20:03.929Z,98654.38
2022-11-06T04:22:43.766Z,98652.44
2022-11-06T04:25:50.042Z,98654.88
2022-11-06T04:28:31.143Z,98643.53
2022-11-06T04:31:11.387Z,98651.50
2022-11-06T04:33:46.860Z,98657.72
2022-11-06T04:36:23.644Z,98654.25
2022-11-06T04:39:02.293Z,98656.31
2022-11-06T04:41:37.682Z,98658.56
2022-11-06T04:44:10.246Z,98657.78
2022-11-06T04:46:46.328Z,98655.47
2022-11-06T04:49:15.536Z,98657.03
2022-11-06T04:51:47.134Z,98654.50
2022-11-06T04:54:16.211Z,98662.91
2022-11-06T04:56:46.312Z,98658.00
2022-11-06T04:59:17.612Z,98656.84
2022-11-06T05:01:47.541Z,98667.34
2022-11-06T05:04:16.631Z,98663.72
2022-11-06T05:06:44.765Z,98669.28
2022-11-06T05:09:13.025Z,98672.25
2022-11-06T05:11:41.023Z,98676.97
2022-11-06T05:14:09.038Z,98674.03
2022-11-06T05:16:37.043Z,98676.16
2022-11-06T05:19:06.557Z,98662.69
2022-11-06T05:21:51.985Z,98668.34
2022-11-06T05:24:19.947Z,98673.81
2022-11-06T05:26:48.122Z,98673.56
2022-11-06T05:29:16.340Z,98677.47
2022-11-06T05:31:44.323Z,98668.94
2022-11-06T05:34:13.770Z,98675.16
2022-11-06T05:36:41.734Z,98672.19
2022-11-06T05:39:10.085Z,98678.72
2022-11-06T05:41:38.209Z,98679.34
2022-11-06T05:44:06.473Z,98679.44
2022-11-06T05:46:50.314Z,98684.97
2022-11-06T05:49:20.415Z,98691.66
2022-11-06T05:51:48.441Z,98683.94
2022-11-06T05:54:16.593Z,98691.38
2022-11-06T05:56:44.556Z,98691.06
2022-11-06T05:59:13.143Z,98699.13
2022-11-06T06:01:41.235Z,98699.50
2022-11-06T06:04:09.334Z,98701.97
2022-11-06T06:06:39.517Z,98710.91
2022-11-06T06:09:07.504Z,98715.47
2022-11-06T06:11:35.673Z,98711.63
2022-11-06T06:14:03.688Z,98711.34
2022-11-06T06:16:32.102Z,98723.69
2022-11-06T06:19:00.110Z,98717.69
2022-11-06T06:21:28.111Z,98710.53
2022-11-06T06:23:57.471Z,98727.59
2022-11-06T06:26:25.589Z,98723.66
2022-11-06T06:28:53.549Z,98716.34
2022-11-06T06:31:21.977Z,98722.69
2022-11-06T06:33:50.242Z,98720.94
2022-11-06T06:36:18.475Z,98730.88
2022-11-06T06:38:46.480Z,98723.63
2022-11-06T06:41:15.866Z,98727.72
2022-11-06T06:43:43.853Z,98723.44
2022-11-06T06:46:11.993Z,98724.44
2022-11-06T06:48:40.011Z,98735.44
2022-11-06T06:51:08.971Z,98739.22
2022-11-06T06:53:37.702Z,98740.63
2022-11-06T06:56:06.037Z,98740.44
2022-11-06T06:58:35.408Z,98741.34
2022-11-06T07:01:05.273Z,98739.03
2022-11-06T07:03:33.954Z,98739.88
2022-11-06T07:06:01.980Z,98741.97
2022-11-06T07:08:30.875Z,98743.50
2022-11-06T07:11:02.305Z,98744.75
2022-11-06T07:13:35.385Z,98748.13
2022-11-06T07:16:06.216Z,98744.44
2022-11-06T07:18:34.414Z,98740.88
2022-11-06T07:21:02.413Z,98739.22
2022-11-06T07:23:30.348Z,98733.84
2022-11-06T07:25:58.370Z,98741.84
2022-11-06T07:28:26.615Z,98735.47
2022-11-06T07:30:58.524Z,98732.94
2022-11-06T07:33:28.090Z,98733.03
2022-11-06T07:35:56.323Z,98729.34
2022-11-06T07:38:24.325Z,98720.50
2022-11-06T07:40:52.288Z,98721.28
2022-11-06T07:43:20.225Z,98721.50
2022-11-06T07:45:48.217Z,98727.53
2022-11-06T07:48:16.516Z,98729.31
2022-11-06T07:50:46.169Z,98732.19
2022-11-06T07:53:14.473Z,98722.06
2022-11-06T07:55:49.506Z,98727.13
2022-11-06T07:58:17.812Z,98722.03
2022-11-06T08:00:48.787Z,98720.31
2022-11-06T08:03:17.504Z,98718.28
2022-11-06T08:05:47.552Z,98719.47
2022-11-06T08:08:15.954Z,98729.66
2022-11-06T08:10:44.707Z,98723.34
2022-11-06T08:13:13.810Z,98724.16
2022-11-06T08:15:42.829Z,98720.91
2022-11-06T08:18:12.485Z,98721.13
2022-11-06T08:20:41.423Z,98727.19
2022-11-06T08:23:14.025Z,98721.81
2022-11-06T08:25:42.087Z,98722.75
2022-11-06T08:28:11.417Z,98719.31
2022-11-06T08:30:39.907Z,98722.84
2022-11-06T08:33:09.412Z,98721.13
2022-11-06T08:35:37.786Z,98721.13
2022-11-06T08:38:05.856Z,98720.72
2022-11-06T08:40:37.511Z,98717.16
2022-11-06T08:43:07.136Z,98718.28
2022-11-06T08:45:38.525Z,98719.63
2022-11-06T08:48:07.217Z,98712.09
2022-11-06T08:50:37.172Z,98717.16
2022-11-06T08:53:06.953Z,98720.22
2022-11-06T08:55:38.169Z,98716.16
2022-11-06T08:58:07.179Z,98717.06
2022-11-06T09:00:36.943Z,98721.28
2022-11-06T09:03:07.690Z,98718.19
2022-11-06T09:05:35.680Z,98714.84
2022-11-06T09:08:03.661Z,98718.09
2022-11-06T09:10:31.640Z,98711.94
2022-11-06T09:13:01.169Z,98711.56
2022-11-06T09:15:29.263Z,98708.88
2022-11-06T09:17:57.389Z,98708.75
2022-11-06T09:20:27.049Z,98715.88
2022-11-06T09:22:55.540Z,98710.50
2022-11-06T09:25:23.461Z,98715.28
2022-11-06T09:27:58.858Z,98706.91
2022-11-06T09:30:30.457Z,98709.22
2022-11-06T09:33:00.451Z,98715.44
2022-11-06T09:35:29.926Z,98714.09
2022-11-06T09:38:03.178Z,98718.63
2022-11-06T09:40:35.289Z,98715.22
2022-11-06T09:43:16.179Z,98719.09
2022-11-06T09:45:53.704Z,98720.06
2022-11-06T09:48:28.846Z,98723.31
2022-11-06T09:51:01.959Z,98721.66
2022-11-06T09:53:35.739Z,98720.31
2022-11-06T09:56:06.474Z,98715.75
2022-11-06T09:58:38.654Z,98714.66
2022-11-06T10:01:22.033Z,98713.69
2022-11-06T10:03:57.805Z,98714.50
2022-11-06T10:06:27.260Z,98712.81
2022-11-06T10:08:58.437Z,98711.25
2022-11-06T10:11:49.875Z,98701.88
2022-11-06T10:14:29.105Z,98709.75
2022-11-06T10:17:05.235Z,98712.94
2022-11-06T10:19:41.468Z,98705.69
2022-11-06T10:22:16.296Z,98707.31
2022-11-06T10:24:47.729Z,98701.00
2022-11-06T10:27:18.333Z,98702.59
2022-11-06T10:30:04.673Z,98693.22
2022-11-06T10:33:08.939Z,98693.75
2022-11-06T10:35:39.782Z,98693.25
2022-11-06T10:38:12.350Z,98689.22
2022-11-06T10:40:41.163Z,98688.47
2022-11-06T10:43:23.253Z,98676.19
2022-11-06T10:45:56.029Z,98676.38
2022-11-06T10:48:31.046Z,98675.72
2022-11-06T10:51:19.718Z,98662.47
2022-11-06T10:53:57.849Z,98661.97
2022-11-06T10:56:51.320Z,98659.03
2022-11-06T10:59:19.766Z,98667.97
2022-11-06T11:01:47.951Z,98658.81
2022-11-06T11:04:17.401Z,98658.06
2022-11-06T11:06:45.330Z,98659.63
2022-11-06T11:09:29.752Z,98654.34
2022-11-06T11:11:58.086Z,98651.53
2022-11-06T11:14:27.568Z,98650.03
2022-11-06T11:16:56.974Z,98632.63
2022-11-06T11:19:34.410Z,98643.72
2022-11-06T11:22:05.265Z,98633.97
2022-11-06T11:24:33.686Z,98636.75
2022-11-06T11:27:04.789Z,98630.44
2022-11-06T11:29:35.330Z,98635.84
2022-11-06T11:32:07.068Z,98636.00
2022-11-06T11:34:49.147Z,98628.06
2022-11-06T11:37:27.282Z,98628.34
2022-11-06T11:39:55.894Z,98629.53
2022-11-06T11:42:29.774Z,98627.44
2022-11-06T11:45:16.227Z,98626.53
2022-11-06T11:47:47.305Z,98629.91
2022-11-06T11:50:30.135Z,98618.84
2022-11-06T11:53:07.135Z,98616.16
2022-11-06T11:55:41.704Z,98621.72
2022-11-06T11:58:21.277Z,98618.44
2022-11-06T12:00:56.850Z,98634.53
2022-11-06T12:03:28.496Z,98617.75
2022-11-06T12:06:06.768Z,98617.53
2022-11-06T12:08:35.087Z,98610.66
2022-11-06T12:11:05.454Z,98606.53
2022-11-06T12:13:33.629Z,98607.59
2022-11-06T12:16:04.627Z,98612.22
2022-11-06T12:18:36.202Z,98604.25
2022-11-06T12:21:08.119Z,98602.47
2022-11-06T12:23:50.098Z,98604.78
2022-11-06T12:26:28.277Z,98602.22
2022-11-06T12:29:04.990Z,98603.16
2022-11-06T12:31:38.790Z,98608.19
2022-11-06T12:34:17.257Z,98606.44
2022-11-06T12:37:11.909Z,98607.25
2022-11-06T12:39:44.173Z,98606.53
2022-11-06T12:42:14.645Z,98600.47
2022-11-06T12:44:42.806Z,98609.28
2022-11-06T12:47:26.440Z,98599.13
2022-11-06T12:50:13.793Z,98606.19
2022-11-06T12:53:06.047Z,98602.72
2022-11-06T12:55:38.886Z,98602.28
2022-11-06T12:58:27.272Z,98604.69
2022-11-06T13:01:04.238Z,98601.31
2022-11-06T13:03:57.363Z,98603.59
2022-11-06T13:06:34.826Z,98595.84
2022-11-06T13:09:12.519Z,98605.09
2022-11-06T13:11:47.022Z,98601.88
2022-11-06T13:14:22.514Z,98604.00
2022-11-06T13:17:01.075Z,98607.19
2022-11-06T13:19:35.732Z,98604.66
2022-11-06T13:22:18.012Z,98602.81
2022-11-06T13:24:57.331Z,98607.38
2022-11-06T13:27:32.449Z,98607.38
2022-11-06T13:30:05.495Z,98598.78
2022-11-06T13:32:37.353Z,98599.06
2022-11-06T13:35:06.571Z,98605.44
2022-11-06T13:37:40.412Z,98603.22
2022-11-06T13:40:21.558Z,98608.75
2022-11-06T13:42:54.766Z,98606.19
2022-11-06T13:45:24.233Z,98604.66
2022-11-06T13:48:06.569Z,98602.84
2022-11-06T13:50:44.066Z,98611.22
2022-11-06T13:53:22.165Z,98601.72
2022-11-06T13:56:04.827Z,98598.03
2022-11-06T13:58:54.596Z,98604.66
2022-11-06T14:01:41.229Z,98599.81
2022-11-06T14:04:49.631Z,98597.34
2022-11-06T14:07:21.922Z,98595.28
2022-11-06T14:09:50.495Z,98588.47
2022-11-06T14:12:23.204Z,98586.84
2022-11-06T14:14:56.258Z,98591.41
2022-11-06T14:17:25.776Z,98579.78
2022-11-06T14:20:07.685Z,98577.72
2022-11-06T14:22:37.525Z,98579.06
2022-11-06T14:25:38.613Z,98582.31
2022-11-06T14:28:08.300Z,98580.16
2022-11-06T14:31:11.055Z,98576.63
2022-11-06T14:33:59.974Z,98578.63
2022-11-06T14:36:36.349Z,98580.81
2022-11-06T14:39:10.567Z,98575.25
2022-11-06T14:41:58.030Z,98568.88
2022-11-06T14:44:35.796Z,98577.78
2022-11-06T14:47:08.003Z,98573.69
2022-11-06T14:49:41.864Z,98562.53
2022-11-06T14:52:13.307Z,98561.69
2022-11-06T14:54:50.535Z,98566.78
2022-11-06T14:57:34.969Z,98554.66
2022-11-06T15:00:06.010Z,98559.88
2022-11-06T15:02:37.421Z,98564.94
2022-11-06T15:05:09.256Z,98563.44
2022-11-06T15:08:10.405Z,98556.03
2022-11-06T15:10:55.449Z,98545.47
2022-11-06T15:13:33.941Z,98548.00
2022-11-06T15:16:22.476Z,98553.63
2022-11-06T15:18:52.407Z,98550.09
2022-11-06T15:21:25.759Z,98550.09
2022-11-06T15:24:05.409Z,98547.28
2022-11-06T15:26:37.525Z,98542.72
2022-11-06T15:29:18.242Z,98542.97
2022-11-06T15:31:50.623Z,98540.88
2022-11-06T15:34:24.941Z,98545.97
2022-11-06T15:36:59.171Z,98539.09
2022-11-06T15:39:39.262Z,98543.81
2022-11-06T15:42:10.073Z,98554.78
2022-11-06T15:44:41.445Z,98548.56
2022-11-06T15:47:22.116Z,98542.25
2022-11-06T15:49:50.303Z,98543.31
2022-11-06T15:52:19.658Z,98541.00
2022-11-06T15:54:49.275Z,98544.31
2022-11-06T15:57:20.822Z,98543.44
2022-11-06T15:59:49.102Z,98543.38
2022-11-06T16:02:22.545Z,98546.91
2022-11-06T16:04:51.350Z,98542.84
2022-11-06T16:07:20.795Z,98549.47
2022-11-06T16:09:51.606Z,98544.13
2022-11-06T16:12:20.442Z,98542.09
2022-11-06T16:14:48.448Z,98537.31
2022-11-06T16:17:23.811Z,98534.88
2022-11-06T16:19:53.549Z,98523.28
2022-11-06T16:22:29.676Z,98521.94
2022-11-06T16:25:01.854Z,98523.28
2022-11-06T16:27:35.718Z,98524.59
2022-11-06T16:30:04.941Z,98517.56
2022-11-06T16:32:40.510Z,98521.91
2022-11-06T16:35:33.119Z,98516.38
2022-11-06T16:38:41.428Z,98517.03
2022-11-06T16:41:36.254Z,98515.19
2022-11-06T16:44:29.686Z,98513.03
2022-11-06T16:47:15.404Z,98519.81
2022-11-06T16:49:52.692Z,98516.97
2022-11-06T16:52:26.551Z,98515.38
2022-11-06T16:54:57.715Z,98509.31
2022-11-06T16:57:28.850Z,98508.84
2022-11-06T16:59:59.898Z,98508.88
2022-11-06T17:02:32.180Z,98505.16
2022-11-06T17:05:16.921Z,98497.69
2022-11-06T17:07:46.415Z,98505.84
2022-11-06T17:10:36.464Z,98515.72
2022-11-06T17:13:25.676Z,98506.22
2022-11-06T17:15:57.655Z,98511.19
2022-11-06T17:18:27.842Z,98505.97
2022-11-06T17:20:59.082Z,98509.81
2022-11-06T17:23:29.253Z,98503.91
2022-11-06T17:26:00.618Z,98506.66
2022-11-06T17:28:29.314Z,98508.75
2022-11-06T17:30:57.889Z,98510.56
2022-11-06T17:33:25.929Z,98510.88
2022-11-06T17:35:54.490Z,98507.91
2022-11-06T17:38:27.070Z,98509.31
2022-11-06T17:40:55.067Z,98507.91
2022-11-06T17:43:24.969Z,98512.69
2022-11-06T17:45:54.786Z,98505.56
2022-11-06T17:48:23.104Z,98505.69
2022-11-06T17:51:08.355Z,98506.09
2022-11-06T17:53:37.733Z,98498.63
2022-11-06T17:56:06.513Z,98498.13
2022-11-06T17:58:35.447Z,98497.03
2022-11-06T18:01:08.881Z,98505.31
2022-11-06T18:03:43.076Z,98502.41
2022-11-06T18:06:11.751Z,98504.63
2022-11-06T18:08:41.111Z,98503.28
2022-11-06T18:11:10.212Z,98496.41
2022-11-06T18:13:39.223Z,98497.66
2022-11-06T18:16:16.223Z,98493.63
2022-11-06T18:18:44.527Z,98493.91
2022-11-06T18:21:12.587Z,98489.50
2022-11-06T18:23:41.917Z,98493.34
2022-11-06T18:26:09.946Z,98497.66
2022-11-06T18:28:38.001Z,98495.38
2022-11-06T18:31:06.427Z,98490.13
2022-11-06T18:33:34.752Z,98485.81
2022-11-06T18:36:03.146Z,98490.31
2022-11-06T18:38:31.413Z,98491.25
2022-11-06T18:41:00.832Z,98492.91
2022-11-06T18:43:28.850Z,98493.22
2022-11-06T18:45:56.920Z,98492.97
2022-11-06T18:48:25.248Z,98486.50
2022-11-06T18:50:53.437Z,98489.81
2022-11-06T18:53:22.755Z,98482.34
2022-11-06T18:55:50.728Z,98485.53
2022-11-06T18:58:20.216Z,98481.91
2022-11-06T19:00:48.197Z,98481.56
2022-11-06T19:03:16.197Z,98476.56
2022-11-06T19:05:48.175Z,98466.88
2022-11-06T19:08:16.659Z,98466.91
2022-11-06T19:10:44.803Z,98473.19
2022-11-06T19:13:12.936Z,98468.72
2022-11-06T19:15:42.952Z,98468.22
2022-11-06T19:18:11.693Z,98469.63
2022-11-06T19:20:41.318Z,98458.72
2022-11-06T19:23:09.898Z,98471.34
2022-11-06T19:25:41.127Z,98457.97
2022-11-06T19:28:09.562Z,98463.81
2022-11-06T19:30:37.903Z,98463.94
2022-11-06T19:33:07.309Z,98457.16
2022-11-06T19:35:35.499Z,98461.34
2022-11-06T19:38:03.800Z,98458.69
2022-11-06T19:40:32.650Z,98459.72
2022-11-06T19:43:03.845Z,98457.97
2022-11-06T19:45:31.867Z,98452.31
2022-11-06T19:48:01.090Z,98452.16
2022-11-06T19:50:58.103Z,98460.28
2022-11-06T19:53:20.061Z,98457.50
2022-11-06T19:55:48.808Z,98460.75
2022-11-06T19:58:18.431Z,98458.47
2022-11-06T20:00:48.526Z,98458.34
2022-11-06T20:03:17.555Z,98459.59
2022-11-06T20:05:47.484Z,98454.56
2022-11-06T20:08:15.867Z,98455.72
2022-11-06T20:10:43.887Z,98446.31
2022-11-06T20:13:12.168Z,98451.63
2022-11-06T20:15:40.784Z,98441.16
2022-11-06T20:18:09.436Z,98439.63
2022-11-06T20:20:37.687Z,98444.72
2022-11-06T20:23:07.014Z,98437.41
2022-11-06T20:25:34.969Z,98437.75
2022-11-06T20:28:03.010Z,98441.16
2022-11-06T20:30:31.056Z,98433.66
2022-11-06T20:32:59.088Z,98430.00
2022-11-06T20:35:27.139Z,98437.13
2022-11-06T20:37:55.136Z,98438.94
2022-11-06T20:40:24.561Z,98438.25
2022-11-06T20:42:52.586Z,98431.38
2022-11-06T20:45:20.621Z,98430.69
2022-11-06T20:47:48.580Z,98420.19
2022-11-06T20:50:17.009Z,98419.50
2022-11-06T20:52:45.425Z,98415.44
2022-11-06T20:55:13.450Z,98409.16
2022-11-06T20:57:42.776Z,98411.59
2022-11-06T21:00:12.462Z,98414.72
2022-11-06T21:02:40.595Z,98410.78
2022-11-06T21:05:09.353Z,98406.91
2022-11-06T21:07:37.337Z,98407.81
2022-11-06T21:10:06.067Z,98408.56
2022-11-06T21:12:34.361Z,98407.75
2022-11-06T21:15:03.916Z,98412.84
2022-11-06T21:17:31.998Z,98415.34
2022-11-06T21:20:00.146Z,98415.16
2022-11-06T21:22:28.174Z,98420.97
2022-11-06T21:24:56.276Z,98417.34
2022-11-06T21:27:24.356Z,98417.88
2022-11-06T21:29:52.349Z,98413.47
2022-11-06T21:32:21.729Z,98414.16
2022-11-06T21:34:49.737Z,98409.75
2022-11-06T21:37:17.820Z,98410.91
2022-11-06T21:39:45.807Z,98411.41
2022-11-06T21:42:13.839Z,98413.19
2022-11-06T21:44:42.203Z,98412.16
2022-11-06T21:47:10.235Z,98414.31
2022-11-06T21:49:39.546Z,98403.25
2022-11-06T21:52:29.115Z,98410.31
2022-11-06T21:55:15.015Z,98402.22
2022-11-06T21:57:42.978Z,98410.16
2022-11-06T22:00:14.381Z,98400.69
2022-11-06T22:02:43.470Z,98406.41
2022-11-06T22:05:12.948Z,98401.19
2022-11-06T22:07:40.954Z,98397.72
2022-11-06T22:10:09.791Z,98401.75
2022-11-06T22:12:37.931Z,98385.22
2022-11-06T22:15:06.584Z,98398.09
2022-11-06T22:17:34.568Z,98401.94
2022-11-06T22:20:03.354Z,98389.09
2022-11-06T22:22:32.747Z,98389.31
2022-11-06T22:25:00.748Z,98397.59
2022-11-06T22:27:28.761Z,98399.88
2022-11-06T22:29:56.747Z,98400.97
2022-11-06T22:32:25.019Z,98379.69
2022-11-06T22:34:53.238Z,98385.66
2022-11-06T22:37:21.301Z,98390.34
2022-11-06T22:39:50.729Z,98391.94
2022-11-06T22:42:18.815Z,98385.38
2022-11-06T22:44:46.994Z,98385.09
2022-11-06T22:47:15.115Z,98385.84
2022-11-06T22:49:43.110Z,98395.47
2022-11-06T22:52:11.127Z,98386.31
2022-11-06T22:54:39.075Z,98381.28
2022-11-06T22:57:08.425Z,98388.75
2022-11-06T22:59:36.368Z,98386.59
2022-11-06T23:02:04.490Z,98382.44
2022-11-06T23:04:32.714Z,98386.59
2022-11-06T23:07:00.686Z,98378.38
2022-11-06T23:09:28.771Z,98372.63
2022-11-06T23:11:56.824Z,98371.13
2022-11-06T23:14:26.350Z,98371.63
2022-11-06T23:17:00.860Z,98360.50
2022-11-06T23:19:31.089Z,98359.19
2022-11-06T23:22:13.228Z,98360.06
2022-11-06T23:24:41.392Z,98353.78
2022-11-06T23:27:10.637Z,98346.84
2022-11-06T23:29:40.730Z,98344.34
2022-11-06T23:32:09.111Z,98356.91
2022-11-06T23:34:37.158Z,98348.97
2022-11-06T23:37:05.097Z,98342.88
2022-11-06T23:39:33.135Z,98345.13
2022-11-06T23:42:01.125Z,98342.69
2022-11-06T23:44:46.437Z,98337.91
2022-11-06T23:47:15.913Z,98342.09
2022-11-06T23:49:43.960Z,98346.47
2022-11-06T23:52:11.883Z,98350.22
2022-11-06T23:54:39.937Z,98354.00
2022-11-06T23:57:08.640Z,98344.13
2022-11-06T23:59:36.867Z,98339.69
